sensor_id;sensor_type;location;lat;lon;timestamp;P1;durP1;ratioP1;P2;durP2;ratioP2
1649;SDS011;822;53.670;8.676;2022-10-17T00:00:59;2.00;;;1.53;;
1649;SDS011;822;53.670;8.676;2022-10-17T00:03:26;1.30;;;1.20;;
1649;SDS011;822;53.670;8.676;2022-10-17T00:05:53;1.87;;;1.77;;
1649;SDS011;822;53.670;8.676;2022-10-17T00:08:19;1.10;;;1.10;;
1649;SDS011;822;53.670;8.676;2022-10-17T00:10:54;1.80;;;1.70;;
1649;SDS011;822;53.670;8.676;2022-10-17T00:13:22;1.60;;;1.50;;
1649;SDS011;822;53.670;8.676;2022-10-17T00:15:50;1.80;;;1.70;;
1649;SDS011;822;53.670;8.676;2022-10-17T00:18:17;1.80;;;1.70;;
1649;SDS011;822;53.670;8.676;2022-10-17T00:20:47;1.63;;;1.53;;
1649;SDS011;822;53.670;8.676;2022-10-17T00:23:14;1.80;;;1.70;;
1649;SDS011;822;53.670;8.676;2022-10-17T00:25:41;1.73;;;1.63;;
1649;SDS011;822;53.670;8.676;2022-10-17T00:28:08;1.47;;;1.47;;
1649;SDS011;822;53.670;8.676;2022-10-17T00:30:36;1.30;;;1.30;;
1649;SDS011;822;53.670;8.676;2022-10-17T00:33:05;2.03;;;1.93;;
1649;SDS011;822;53.670;8.676;2022-10-17T00:35:32;1.80;;;1.70;;
1649;SDS011;822;53.670;8.676;2022-10-17T00:38:02;1.90;;;1.80;;
1649;SDS011;822;53.670;8.676;2022-10-17T00:40:28;1.60;;;1.50;;
1649;SDS011;822;53.670;8.676;2022-10-17T00:42:55;1.73;;;1.63;;
1649;SDS011;822;53.670;8.676;2022-10-17T00:45:23;2.80;;;1.57;;
1649;SDS011;822;53.670;8.676;2022-10-17T00:47:52;2.17;;;2.07;;
1649;SDS011;822;53.670;8.676;2022-10-17T00:50:22;1.93;;;1.83;;
1649;SDS011;822;53.670;8.676;2022-10-17T00:52:50;1.70;;;1.70;;
1649;SDS011;822;53.670;8.676;2022-10-17T00:55:19;2.10;;;2.00;;
1649;SDS011;822;53.670;8.676;2022-10-17T00:57:47;2.10;;;2.00;;
1649;SDS011;822;53.670;8.676;2022-10-17T01:00:14;1.50;;;1.40;;
1649;SDS011;822;53.670;8.676;2022-10-17T01:02:42;1.47;;;1.47;;
1649;SDS011;822;53.670;8.676;2022-10-17T01:05:09;1.30;;;1.20;;
1649;SDS011;822;53.670;8.676;2022-10-17T01:07:37;1.90;;;1.80;;
1649;SDS011;822;53.670;8.676;2022-10-17T01:10:05;2.50;;;2.07;;
1649;SDS011;822;53.670;8.676;2022-10-17T01:12:35;1.90;;;1.80;;
1649;SDS011;822;53.670;8.676;2022-10-17T01:15:13;1.83;;;1.67;;
1649;SDS011;822;53.670;8.676;2022-10-17T01:18:02;3.07;;;1.97;;
1649;SDS011;822;53.670;8.676;2022-10-17T01:20:51;1.93;;;1.67;;
1649;SDS011;822;53.670;8.676;2022-10-17T01:23:42;1.27;;;1.27;;
1649;SDS011;822;53.670;8.676;2022-10-17T01:26:22;2.27;;;2.07;;
1649;SDS011;822;53.670;8.676;2022-10-17T01:29:00;1.77;;;1.67;;
1649;SDS011;822;53.670;8.676;2022-10-17T01:31:36;2.00;;;1.90;;
1649;SDS011;822;53.670;8.676;2022-10-17T01:34:09;2.07;;;1.97;;
1649;SDS011;822;53.670;8.676;2022-10-17T01:36:43;2.50;;;1.30;;
1649;SDS011;822;53.670;8.676;2022-10-17T01:39:16;2.03;;;1.90;;
1649;SDS011;822;53.670;8.676;2022-10-17T01:41:48;1.53;;;1.43;;
1649;SDS011;822;53.670;8.676;2022-10-17T01:44:18;1.30;;;1.30;;
1649;SDS011;822;53.670;8.676;2022-10-17T01:46:48;2.00;;;1.90;;
1649;SDS011;822;53.670;8.676;2022-10-17T01:49:16;1.20;;;1.20;;
1649;SDS011;822;53.670;8.676;2022-10-17T01:51:48;1.97;;;1.87;;
1649;SDS011;822;53.670;8.676;2022-10-17T01:54:20;6.00;;;2.00;;
1649;SDS011;822;53.670;8.676;2022-10-17T01:56:50;1.40;;;1.40;;
1649;SDS011;822;53.670;8.676;2022-10-17T01:59:19;1.53;;;1.53;;
1649;SDS011;822;53.670;8.676;2022-10-17T02:01:50;1.60;;;1.50;;
1649;SDS011;822;53.670;8.676;2022-10-17T02:04:18;2.03;;;1.30;;
1649;SDS011;822;53.670;8.676;2022-10-17T02:06:45;1.53;;;1.43;;
1649;SDS011;822;53.670;8.676;2022-10-17T02:09:16;1.40;;;1.40;;
1649;SDS011;822;53.670;8.676;2022-10-17T02:11:49;1.63;;;1.50;;
1649;SDS011;822;53.670;8.676;2022-10-17T02:14:29;1.20;;;1.20;;
1649;SDS011;822;53.670;8.676;2022-10-17T02:17:06;1.27;;;1.27;;
1649;SDS011;822;53.670;8.676;2022-10-17T02:19:43;1.87;;;1.67;;
1649;SDS011;822;53.670;8.676;2022-10-17T02:22:15;1.67;;;1.57;;
1649;SDS011;822;53.670;8.676;2022-10-17T02:24:46;1.80;;;1.70;;
1649;SDS011;822;53.670;8.676;2022-10-17T02:27:16;1.47;;;1.37;;
1649;SDS011;822;53.670;8.676;2022-10-17T02:29:52;1.33;;;1.33;;
1649;SDS011;822;53.670;8.676;2022-10-17T02:32:23;1.20;;;1.20;;
1649;SDS011;822;53.670;8.676;2022-10-17T02:34:54;1.30;;;1.30;;
1649;SDS011;822;53.670;8.676;2022-10-17T02:37:22;1.30;;;1.30;;
1649;SDS011;822;53.670;8.676;2022-10-17T02:39:51;1.73;;;1.63;;
1649;SDS011;822;53.670;8.676;2022-10-17T02:42:19;1.53;;;1.43;;
1649;SDS011;822;53.670;8.676;2022-10-17T02:44:47;2.07;;;1.50;;
1649;SDS011;822;53.670;8.676;2022-10-17T02:47:16;1.70;;;1.60;;
1649;SDS011;822;53.670;8.676;2022-10-17T02:49:48;1.10;;;1.10;;
1649;SDS011;822;53.670;8.676;2022-10-17T02:52:16;1.40;;;1.30;;
1649;SDS011;822;53.670;8.676;2022-10-17T02:54:50;1.47;;;1.37;;
1649;SDS011;822;53.670;8.676;2022-10-17T02:57:20;1.30;;;1.30;;
1649;SDS011;822;53.670;8.676;2022-10-17T02:59:50;1.73;;;1.63;;
1649;SDS011;822;53.670;8.676;2022-10-17T03:02:16;1.60;;;1.50;;
1649;SDS011;822;53.670;8.676;2022-10-17T03:04:44;1.60;;;1.50;;
1649;SDS011;822;53.670;8.676;2022-10-17T03:07:12;2.03;;;1.93;;
1649;SDS011;822;53.670;8.676;2022-10-17T03:09:39;2.00;;;1.90;;
1649;SDS011;822;53.670;8.676;2022-10-17T03:12:06;1.60;;;1.50;;
1649;SDS011;822;53.670;8.676;2022-10-17T03:14:32;2.27;;;1.73;;
1649;SDS011;822;53.670;8.676;2022-10-17T03:16:59;1.80;;;1.70;;
1649;SDS011;822;53.670;8.676;2022-10-17T03:19:26;1.67;;;1.57;;
1649;SDS011;822;53.670;8.676;2022-10-17T03:21:54;2.07;;;1.97;;
1649;SDS011;822;53.670;8.676;2022-10-17T03:24:21;1.53;;;1.43;;
1649;SDS011;822;53.670;8.676;2022-10-17T03:26:48;1.63;;;1.53;;
1649;SDS011;822;53.670;8.676;2022-10-17T03:29:15;3.90;;;1.60;;
1649;SDS011;822;53.670;8.676;2022-10-17T03:31:41;1.50;;;1.40;;
1649;SDS011;822;53.670;8.676;2022-10-17T03:34:08;2.30;;;2.17;;
1649;SDS011;822;53.670;8.676;2022-10-17T03:36:35;1.93;;;1.80;;
1649;SDS011;822;53.670;8.676;2022-10-17T03:39:03;1.90;;;1.80;;
1649;SDS011;822;53.670;8.676;2022-10-17T03:41:30;1.60;;;1.50;;
1649;SDS011;822;53.670;8.676;2022-10-17T03:43:57;1.60;;;1.50;;
1649;SDS011;822;53.670;8.676;2022-10-17T03:46:23;6.57;;;1.60;;
1649;SDS011;822;53.670;8.676;2022-10-17T03:48:50;1.47;;;1.47;;
1649;SDS011;822;53.670;8.676;2022-10-17T03:51:17;1.73;;;1.63;;
1649;SDS011;822;53.670;8.676;2022-10-17T03:53:44;1.70;;;1.60;;
1649;SDS011;822;53.670;8.676;2022-10-17T03:56:13;1.60;;;1.50;;
1649;SDS011;822;53.670;8.676;2022-10-17T03:58:41;1.37;;;1.27;;
1649;SDS011;822;53.670;8.676;2022-10-17T04:01:09;1.80;;;1.70;;
1649;SDS011;822;53.670;8.676;2022-10-17T04:03:37;2.53;;;1.23;;
1649;SDS011;822;53.670;8.676;2022-10-17T04:06:04;1.50;;;1.40;;
1649;SDS011;822;53.670;8.676;2022-10-17T04:08:32;1.40;;;1.30;;
1649;SDS011;822;53.670;8.676;2022-10-17T04:11:00;1.90;;;1.80;;
1649;SDS011;822;53.670;8.676;2022-10-17T04:13:28;1.50;;;1.40;;
1649;SDS011;822;53.670;8.676;2022-10-17T04:15:55;2.20;;;1.90;;
1649;SDS011;822;53.670;8.676;2022-10-17T04:18:23;1.67;;;1.57;;
1649;SDS011;822;53.670;8.676;2022-10-17T04:20:50;1.43;;;1.33;;
1649;SDS011;822;53.670;8.676;2022-10-17T04:23:17;2.10;;;2.00;;
1649;SDS011;822;53.670;8.676;2022-10-17T04:25:44;1.60;;;1.50;;
1649;SDS011;822;53.670;8.676;2022-10-17T04:28:11;1.73;;;1.63;;
1649;SDS011;822;53.670;8.676;2022-10-17T04:30:39;1.20;;;1.20;;
1649;SDS011;822;53.670;8.676;2022-10-17T04:33:06;1.60;;;1.50;;
1649;SDS011;822;53.670;8.676;2022-10-17T04:35:33;2.00;;;1.90;;
1649;SDS011;822;53.670;8.676;2022-10-17T04:38:00;1.53;;;1.47;;
1649;SDS011;822;53.670;8.676;2022-10-17T04:40:27;2.20;;;2.10;;
1649;SDS011;822;53.670;8.676;2022-10-17T04:42:53;1.90;;;1.63;;
1649;SDS011;822;53.670;8.676;2022-10-17T04:45:20;1.87;;;1.77;;
1649;SDS011;822;53.670;8.676;2022-10-17T04:47:48;2.10;;;2.00;;
1649;SDS011;822;53.670;8.676;2022-10-17T04:50:18;1.70;;;1.60;;
1649;SDS011;822;53.670;8.676;2022-10-17T04:52:45;2.03;;;1.93;;
1649;SDS011;822;53.670;8.676;2022-10-17T04:55:12;1.93;;;1.83;;
1649;SDS011;822;53.670;8.676;2022-10-17T04:57:38;1.83;;;1.73;;
1649;SDS011;822;53.670;8.676;2022-10-17T05:00:06;2.17;;;2.07;;
1649;SDS011;822;53.670;8.676;2022-10-17T05:02:34;2.50;;;2.30;;
1649;SDS011;822;53.670;8.676;2022-10-17T05:05:02;1.80;;;1.70;;
1649;SDS011;822;53.670;8.676;2022-10-17T05:07:29;1.80;;;1.70;;
1649;SDS011;822;53.670;8.676;2022-10-17T05:09:56;1.80;;;1.67;;
1649;SDS011;822;53.670;8.676;2022-10-17T05:12:23;1.90;;;1.80;;
1649;SDS011;822;53.670;8.676;2022-10-17T05:14:50;1.80;;;1.70;;
1649;SDS011;822;53.670;8.676;2022-10-17T05:17:17;2.00;;;1.90;;
1649;SDS011;822;53.670;8.676;2022-10-17T05:19:43;2.20;;;2.00;;
1649;SDS011;822;53.670;8.676;2022-10-17T05:22:12;2.10;;;2.00;;
1649;SDS011;822;53.670;8.676;2022-10-17T05:24:39;1.87;;;1.77;;
1649;SDS011;822;53.670;8.676;2022-10-17T05:27:06;2.40;;;2.30;;
1649;SDS011;822;53.670;8.676;2022-10-17T05:29:33;2.03;;;1.93;;
1649;SDS011;822;53.670;8.676;2022-10-17T05:32:00;3.77;;;2.07;;
1649;SDS011;822;53.670;8.676;2022-10-17T05:34:27;1.97;;;1.87;;
1649;SDS011;822;53.670;8.676;2022-10-17T05:36:53;2.00;;;1.90;;
1649;SDS011;822;53.670;8.676;2022-10-17T05:39:25;2.33;;;2.17;;
1649;SDS011;822;53.670;8.676;2022-10-17T05:41:52;2.07;;;1.87;;
1649;SDS011;822;53.670;8.676;2022-10-17T05:44:19;2.67;;;2.47;;
1649;SDS011;822;53.670;8.676;2022-10-17T05:46:46;1.93;;;1.83;;
1649;SDS011;822;53.670;8.676;2022-10-17T05:49:13;3.20;;;2.20;;
1649;SDS011;822;53.670;8.676;2022-10-17T05:51:40;2.17;;;2.07;;
1649;SDS011;822;53.670;8.676;2022-10-17T05:54:07;2.10;;;2.00;;
1649;SDS011;822;53.670;8.676;2022-10-17T05:56:35;2.27;;;2.10;;
1649;SDS011;822;53.670;8.676;2022-10-17T05:59:03;1.80;;;1.70;;
1649;SDS011;822;53.670;8.676;2022-10-17T06:01:30;2.00;;;1.90;;
1649;SDS011;822;53.670;8.676;2022-10-17T06:03:57;2.20;;;2.00;;
1649;SDS011;822;53.670;8.676;2022-10-17T06:06:24;2.57;;;2.37;;
1649;SDS011;822;53.670;8.676;2022-10-17T06:08:50;2.37;;;2.27;;
1649;SDS011;822;53.670;8.676;2022-10-17T06:11:17;2.17;;;2.07;;
1649;SDS011;822;53.670;8.676;2022-10-17T06:13:45;2.20;;;2.10;;
1649;SDS011;822;53.670;8.676;2022-10-17T06:16:15;2.30;;;2.07;;
1649;SDS011;822;53.670;8.676;2022-10-17T06:18:42;1.67;;;1.57;;
1649;SDS011;822;53.670;8.676;2022-10-17T06:21:09;2.03;;;1.93;;
1649;SDS011;822;53.670;8.676;2022-10-17T06:23:37;2.33;;;2.23;;
1649;SDS011;822;53.670;8.676;2022-10-17T06:26:04;1.80;;;1.70;;
1649;SDS011;822;53.670;8.676;2022-10-17T06:28:31;2.03;;;1.93;;
1649;SDS011;822;53.670;8.676;2022-10-17T06:31:05;1.90;;;1.80;;
1649;SDS011;822;53.670;8.676;2022-10-17T06:33:32;1.70;;;1.60;;
1649;SDS011;822;53.670;8.676;2022-10-17T06:35:59;1.97;;;1.87;;
1649;SDS011;822;53.670;8.676;2022-10-17T06:38:26;2.30;;;2.10;;
1649;SDS011;822;53.670;8.676;2022-10-17T06:40:52;1.83;;;1.73;;
1649;SDS011;822;53.670;8.676;2022-10-17T06:43:22;1.63;;;1.53;;
1649;SDS011;822;53.670;8.676;2022-10-17T06:45:49;2.57;;;2.40;;
1649;SDS011;822;53.670;8.676;2022-10-17T06:48:17;1.63;;;1.53;;
1649;SDS011;822;53.670;8.676;2022-10-17T06:50:44;2.20;;;2.10;;
1649;SDS011;822;53.670;8.676;2022-10-17T06:53:11;2.43;;;2.23;;
1649;SDS011;822;53.670;8.676;2022-10-17T06:55:37;2.10;;;2.00;;
1649;SDS011;822;53.670;8.676;2022-10-17T06:58:04;2.00;;;1.90;;
1649;SDS011;822;53.670;8.676;2022-10-17T07:00:31;2.20;;;2.10;;
1649;SDS011;822;53.670;8.676;2022-10-17T07:02:58;2.00;;;1.90;;
1649;SDS011;822;53.670;8.676;2022-10-17T07:05:26;2.17;;;2.07;;
1649;SDS011;822;53.670;8.676;2022-10-17T07:07:53;2.50;;;2.40;;
1649;SDS011;822;53.670;8.676;2022-10-17T07:10:20;1.60;;;1.50;;
1649;SDS011;822;53.670;8.676;2022-10-17T07:12:46;2.70;;;2.50;;
1649;SDS011;822;53.670;8.676;2022-10-17T07:15:13;2.40;;;2.20;;
1649;SDS011;822;53.670;8.676;2022-10-17T07:17:40;2.33;;;2.13;;
1649;SDS011;822;53.670;8.676;2022-10-17T07:20:07;2.23;;;2.03;;
1649;SDS011;822;53.670;8.676;2022-10-17T07:22:36;2.37;;;2.17;;
1649;SDS011;822;53.670;8.676;2022-10-17T07:25:07;1.80;;;1.70;;
1649;SDS011;822;53.670;8.676;2022-10-17T07:27:37;3.20;;;3.00;;
1649;SDS011;822;53.670;8.676;2022-10-17T07:30:04;2.30;;;2.10;;
1649;SDS011;822;53.670;8.676;2022-10-17T07:32:32;1.90;;;1.80;;
1649;SDS011;822;53.670;8.676;2022-10-17T07:34:59;2.50;;;2.37;;
1649;SDS011;822;53.670;8.676;2022-10-17T07:37:26;2.00;;;1.90;;
1649;SDS011;822;53.670;8.676;2022-10-17T07:39:54;2.33;;;2.20;;
1649;SDS011;822;53.670;8.676;2022-10-17T07:42:21;2.37;;;2.17;;
1649;SDS011;822;53.670;8.676;2022-10-17T07:44:48;2.70;;;2.50;;
1649;SDS011;822;53.670;8.676;2022-10-17T07:47:18;6.30;;;2.07;;
1649;SDS011;822;53.670;8.676;2022-10-17T07:49:45;1.90;;;1.80;;
1649;SDS011;822;53.670;8.676;2022-10-17T07:52:12;2.00;;;1.90;;
1649;SDS011;822;53.670;8.676;2022-10-17T07:54:39;2.20;;;2.10;;
1649;SDS011;822;53.670;8.676;2022-10-17T07:57:08;2.20;;;2.10;;
1649;SDS011;822;53.670;8.676;2022-10-17T07:59:35;2.33;;;2.17;;
1649;SDS011;822;53.670;8.676;2022-10-17T08:02:03;2.20;;;2.03;;
1649;SDS011;822;53.670;8.676;2022-10-17T08:04:32;2.00;;;1.90;;
1649;SDS011;822;53.670;8.676;2022-10-17T08:07:00;2.63;;;2.53;;
1649;SDS011;822;53.670;8.676;2022-10-17T08:09:27;3.67;;;2.33;;
1649;SDS011;822;53.670;8.676;2022-10-17T08:11:54;2.60;;;2.40;;
1649;SDS011;822;53.670;8.676;2022-10-17T08:14:23;2.33;;;2.20;;
1649;SDS011;822;53.670;8.676;2022-10-17T08:16:49;2.90;;;2.70;;
1649;SDS011;822;53.670;8.676;2022-10-17T08:19:16;2.87;;;2.57;;
1649;SDS011;822;53.670;8.676;2022-10-17T08:21:43;2.80;;;2.70;;
1649;SDS011;822;53.670;8.676;2022-10-17T08:24:11;2.50;;;2.30;;
1649;SDS011;822;53.670;8.676;2022-10-17T08:26:38;2.47;;;2.27;;
1649;SDS011;822;53.670;8.676;2022-10-17T08:29:05;1.93;;;1.83;;
1649;SDS011;822;53.670;8.676;2022-10-17T08:31:33;2.27;;;2.13;;
1649;SDS011;822;53.670;8.676;2022-10-17T08:34:00;2.60;;;2.40;;
1649;SDS011;822;53.670;8.676;2022-10-17T08:36:27;2.30;;;2.17;;
1649;SDS011;822;53.670;8.676;2022-10-17T08:38:56;1.93;;;1.83;;
1649;SDS011;822;53.670;8.676;2022-10-17T08:41:29;2.47;;;2.27;;
1649;SDS011;822;53.670;8.676;2022-10-17T08:44:05;1.90;;;1.80;;
1649;SDS011;822;53.670;8.676;2022-10-17T08:46:40;5.43;;;1.90;;
1649;SDS011;822;53.670;8.676;2022-10-17T08:49:09;2.37;;;2.27;;
1649;SDS011;822;53.670;8.676;2022-10-17T08:51:41;2.27;;;2.17;;
1649;SDS011;822;53.670;8.676;2022-10-17T08:54:12;3.30;;;1.83;;
1649;SDS011;822;53.670;8.676;2022-10-17T08:56:42;1.80;;;1.70;;
1649;SDS011;822;53.670;8.676;2022-10-17T08:59:10;1.70;;;1.60;;
1649;SDS011;822;53.670;8.676;2022-10-17T09:01:41;2.00;;;1.80;;
1649;SDS011;822;53.670;8.676;2022-10-17T09:04:15;2.07;;;1.97;;
1649;SDS011;822;53.670;8.676;2022-10-17T09:07:03;2.17;;;2.07;;
1649;SDS011;822;53.670;8.676;2022-10-17T09:09:34;1.73;;;1.63;;
1649;SDS011;822;53.670;8.676;2022-10-17T09:12:11;1.80;;;1.70;;
1649;SDS011;822;53.670;8.676;2022-10-17T09:14:49;1.60;;;1.50;;
1649;SDS011;822;53.670;8.676;2022-10-17T09:17:31;2.20;;;2.10;;
1649;SDS011;822;53.670;8.676;2022-10-17T09:20:03;1.87;;;1.63;;
1649;SDS011;822;53.670;8.676;2022-10-17T09:22:36;1.13;;;1.13;;
1649;SDS011;822;53.670;8.676;2022-10-17T09:25:09;2.10;;;2.00;;
1649;SDS011;822;53.670;8.676;2022-10-17T09:27:39;2.03;;;1.80;;
1649;SDS011;822;53.670;8.676;2022-10-17T09:30:19;2.10;;;2.00;;
1649;SDS011;822;53.670;8.676;2022-10-17T09:32:56;1.67;;;1.57;;
1649;SDS011;822;53.670;8.676;2022-10-17T09:35:23;2.00;;;1.90;;
1649;SDS011;822;53.670;8.676;2022-10-17T09:37:50;1.87;;;1.77;;
1649;SDS011;822;53.670;8.676;2022-10-17T09:40:18;1.50;;;1.40;;
1649;SDS011;822;53.670;8.676;2022-10-17T09:42:49;1.93;;;1.73;;
1649;SDS011;822;53.670;8.676;2022-10-17T09:45:17;2.10;;;1.53;;
1649;SDS011;822;53.670;8.676;2022-10-17T09:47:50;1.40;;;1.30;;
1649;SDS011;822;53.670;8.676;2022-10-17T09:50:24;2.03;;;1.90;;
1649;SDS011;822;53.670;8.676;2022-10-17T09:52:53;1.07;;;1.07;;
1649;SDS011;822;53.670;8.676;2022-10-17T09:55:22;1.37;;;1.27;;
1649;SDS011;822;53.670;8.676;2022-10-17T09:57:56;1.83;;;1.60;;
1649;SDS011;822;53.670;8.676;2022-10-17T10:00:25;1.70;;;1.60;;
1649;SDS011;822;53.670;8.676;2022-10-17T10:03:08;1.37;;;1.27;;
1649;SDS011;822;53.670;8.676;2022-10-17T10:05:36;2.20;;;1.60;;
1649;SDS011;822;53.670;8.676;2022-10-17T10:08:04;1.70;;;1.60;;
1649;SDS011;822;53.670;8.676;2022-10-17T10:10:32;1.77;;;1.67;;
1649;SDS011;822;53.670;8.676;2022-10-17T10:13:05;1.67;;;1.57;;
1649;SDS011;822;53.670;8.676;2022-10-17T10:15:36;1.60;;;1.50;;
1649;SDS011;822;53.670;8.676;2022-10-17T10:21:02;2.03;;;1.93;;
1649;SDS011;822;53.670;8.676;2022-10-17T10:23:31;1.67;;;1.57;;
1649;SDS011;822;53.670;8.676;2022-10-17T10:25:58;1.90;;;1.80;;
1649;SDS011;822;53.670;8.676;2022-10-17T10:28:28;1.47;;;1.37;;
1649;SDS011;822;53.670;8.676;2022-10-17T10:30:57;1.97;;;1.77;;
1649;SDS011;822;53.670;8.676;2022-10-17T10:33:26;3.00;;;2.53;;
1649;SDS011;822;53.670;8.676;2022-10-17T10:35:56;3.10;;;2.37;;
1649;SDS011;822;53.670;8.676;2022-10-17T10:38:25;1.90;;;1.80;;
1649;SDS011;822;53.670;8.676;2022-10-17T10:40:53;1.37;;;1.27;;
1649;SDS011;822;53.670;8.676;2022-10-17T10:43:22;1.70;;;1.60;;
1649;SDS011;822;53.670;8.676;2022-10-17T10:45:51;1.73;;;1.63;;
1649;SDS011;822;53.670;8.676;2022-10-17T10:48:19;1.00;;;1.00;;
1649;SDS011;822;53.670;8.676;2022-10-17T10:50:48;2.50;;;1.57;;
1649;SDS011;822;53.670;8.676;2022-10-17T10:53:31;1.60;;;1.50;;
1649;SDS011;822;53.670;8.676;2022-10-17T10:56:02;1.70;;;1.60;;
1649;SDS011;822;53.670;8.676;2022-10-17T10:58:33;1.37;;;1.27;;
1649;SDS011;822;53.670;8.676;2022-10-17T11:01:08;2.00;;;1.90;;
1649;SDS011;822;53.670;8.676;2022-10-17T11:03:39;1.97;;;1.87;;
1649;SDS011;822;53.670;8.676;2022-10-17T11:06:11;1.60;;;1.50;;
1649;SDS011;822;53.670;8.676;2022-10-17T11:08:41;2.03;;;1.93;;
1649;SDS011;822;53.670;8.676;2022-10-17T11:11:12;1.73;;;1.63;;
1649;SDS011;822;53.670;8.676;2022-10-17T11:13:44;2.07;;;1.97;;
1649;SDS011;822;53.670;8.676;2022-10-17T11:16:17;1.70;;;1.60;;
1649;SDS011;822;53.670;8.676;2022-10-17T11:18:54;2.10;;;2.00;;
1649;SDS011;822;53.670;8.676;2022-10-17T11:21:27;1.93;;;1.83;;
1649;SDS011;822;53.670;8.676;2022-10-17T11:24:04;2.10;;;2.00;;
1649;SDS011;822;53.670;8.676;2022-10-17T11:26:34;1.50;;;1.40;;
1649;SDS011;822;53.670;8.676;2022-10-17T11:29:06;1.20;;;1.20;;
1649;SDS011;822;53.670;8.676;2022-10-17T11:31:37;2.47;;;2.27;;
1649;SDS011;822;53.670;8.676;2022-10-17T11:34:09;2.07;;;1.93;;
1649;SDS011;822;53.670;8.676;2022-10-17T11:36:43;2.20;;;2.07;;
1649;SDS011;822;53.670;8.676;2022-10-17T11:39:15;1.10;;;1.10;;
1649;SDS011;822;53.670;8.676;2022-10-17T11:41:45;1.83;;;1.73;;
1649;SDS011;822;53.670;8.676;2022-10-17T11:44:17;1.73;;;1.63;;
1649;SDS011;822;53.670;8.676;2022-10-17T11:46:46;1.93;;;1.83;;
1649;SDS011;822;53.670;8.676;2022-10-17T11:49:17;2.80;;;2.60;;
1649;SDS011;822;53.670;8.676;2022-10-17T11:51:46;1.90;;;1.80;;
1649;SDS011;822;53.670;8.676;2022-10-17T11:54:16;2.10;;;1.90;;
1649;SDS011;822;53.670;8.676;2022-10-17T11:56:50;2.73;;;2.53;;
1649;SDS011;822;53.670;8.676;2022-10-17T11:59:41;2.20;;;2.10;;
1649;SDS011;822;53.670;8.676;2022-10-17T12:02:16;4.33;;;3.10;;
1649;SDS011;822;53.670;8.676;2022-10-17T12:04:52;3.37;;;3.10;;
1649;SDS011;822;53.670;8.676;2022-10-17T12:07:25;2.80;;;2.60;;
1649;SDS011;822;53.670;8.676;2022-10-17T12:09:58;2.80;;;2.60;;
1649;SDS011;822;53.670;8.676;2022-10-17T12:12:28;3.07;;;2.87;;
1649;SDS011;822;53.670;8.676;2022-10-17T12:15:25;3.10;;;2.80;;
1649;SDS011;822;53.670;8.676;2022-10-17T12:17:53;3.07;;;2.70;;
1649;SDS011;822;53.670;8.676;2022-10-17T12:20:33;5.10;;;2.93;;
1649;SDS011;822;53.670;8.676;2022-10-17T12:23:03;3.60;;;3.33;;
1649;SDS011;822;53.670;8.676;2022-10-17T12:25:48;2.87;;;2.67;;
1649;SDS011;822;53.670;8.676;2022-10-17T12:28:17;3.00;;;2.80;;
1649;SDS011;822;53.670;8.676;2022-10-17T12:30:51;2.93;;;2.70;;
1649;SDS011;822;53.670;8.676;2022-10-17T12:33:20;3.07;;;2.87;;
1649;SDS011;822;53.670;8.676;2022-10-17T12:35:48;4.00;;;3.47;;
1649;SDS011;822;53.670;8.676;2022-10-17T12:38:26;3.80;;;3.50;;
1649;SDS011;822;53.670;8.676;2022-10-17T12:52:15;3.40;;;3.10;;
1649;SDS011;822;53.670;8.676;2022-10-17T12:54:53;3.27;;;2.97;;
1649;SDS011;822;53.670;8.676;2022-10-17T12:57:29;3.60;;;3.30;;
1649;SDS011;822;53.670;8.676;2022-10-17T12:59:59;3.33;;;3.13;;
1649;SDS011;822;53.670;8.676;2022-10-17T13:02:29;3.70;;;3.40;;
1649;SDS011;822;53.670;8.676;2022-10-17T13:04:57;3.67;;;3.37;;
1649;SDS011;822;53.670;8.676;2022-10-17T13:07:32;4.27;;;3.97;;
1649;SDS011;822;53.670;8.676;2022-10-17T13:09:59;4.13;;;3.90;;
1649;SDS011;822;53.670;8.676;2022-10-17T13:12:31;4.13;;;3.83;;
1649;SDS011;822;53.670;8.676;2022-10-17T13:14:59;4.40;;;3.53;;
1649;SDS011;822;53.670;8.676;2022-10-17T13:17:30;4.07;;;3.70;;
1649;SDS011;822;53.670;8.676;2022-10-17T13:19:58;3.33;;;3.03;;
1649;SDS011;822;53.670;8.676;2022-10-17T13:22:26;3.73;;;3.43;;
1649;SDS011;822;53.670;8.676;2022-10-17T13:25:04;3.53;;;3.23;;
1649;SDS011;822;53.670;8.676;2022-10-17T13:27:34;7.13;;;2.77;;
1649;SDS011;822;53.670;8.676;2022-10-17T13:30:16;3.70;;;3.40;;
1649;SDS011;822;53.670;8.676;2022-10-17T13:32:48;3.17;;;2.87;;
1649;SDS011;822;53.670;8.676;2022-10-17T13:35:16;3.50;;;3.30;;
1649;SDS011;822;53.670;8.676;2022-10-17T13:37:48;3.33;;;3.03;;
1649;SDS011;822;53.670;8.676;2022-10-17T13:40:16;3.83;;;3.43;;
1649;SDS011;822;53.670;8.676;2022-10-17T13:42:45;4.00;;;3.70;;
1649;SDS011;822;53.670;8.676;2022-10-17T13:45:15;3.83;;;3.53;;
1649;SDS011;822;53.670;8.676;2022-10-17T13:47:44;5.07;;;4.67;;
1649;SDS011;822;53.670;8.676;2022-10-17T13:50:25;4.37;;;3.97;;
1649;SDS011;822;53.670;8.676;2022-10-17T13:53:07;3.43;;;3.23;;
1649;SDS011;822;53.670;8.676;2022-10-17T13:55:51;3.97;;;3.67;;
1649;SDS011;822;53.670;8.676;2022-10-17T13:58:21;3.70;;;3.50;;
1649;SDS011;822;53.670;8.676;2022-10-17T14:00:48;3.47;;;3.27;;
1649;SDS011;822;53.670;8.676;2022-10-17T14:03:16;3.53;;;3.33;;
1649;SDS011;822;53.670;8.676;2022-10-17T14:05:57;3.53;;;3.33;;
1649;SDS011;822;53.670;8.676;2022-10-17T14:08:26;4.00;;;3.70;;
1649;SDS011;822;53.670;8.676;2022-10-17T14:10:54;5.17;;;4.77;;
1649;SDS011;822;53.670;8.676;2022-10-17T14:13:22;4.23;;;3.93;;
1649;SDS011;822;53.670;8.676;2022-10-17T14:15:50;3.83;;;3.27;;
1649;SDS011;822;53.670;8.676;2022-10-17T14:18:19;4.37;;;4.07;;
1649;SDS011;822;53.670;8.676;2022-10-17T14:20:48;3.63;;;3.30;;
1649;SDS011;822;53.670;8.676;2022-10-17T14:23:29;3.80;;;3.50;;
1649;SDS011;822;53.670;8.676;2022-10-17T14:26:05;3.57;;;3.37;;
1649;SDS011;822;53.670;8.676;2022-10-17T14:28:35;3.90;;;3.27;;
1649;SDS011;822;53.670;8.676;2022-10-17T14:31:09;3.60;;;3.23;;
1649;SDS011;822;53.670;8.676;2022-10-17T14:33:41;3.37;;;2.97;;
1649;SDS011;822;53.670;8.676;2022-10-17T14:36:09;4.10;;;3.70;;
1649;SDS011;822;53.670;8.676;2022-10-17T14:38:36;4.90;;;3.77;;
1649;SDS011;822;53.670;8.676;2022-10-17T14:41:04;3.77;;;3.30;;
1649;SDS011;822;53.670;8.676;2022-10-17T14:43:32;3.67;;;3.43;;
1649;SDS011;822;53.670;8.676;2022-10-17T14:46:01;2.87;;;2.67;;
1649;SDS011;822;53.670;8.676;2022-10-17T14:48:28;3.10;;;2.90;;
1649;SDS011;822;53.670;8.676;2022-10-17T14:51:06;2.90;;;2.70;;
1649;SDS011;822;53.670;8.676;2022-10-17T14:53:37;3.70;;;3.40;;
1649;SDS011;822;53.670;8.676;2022-10-17T14:56:17;3.47;;;3.27;;
1649;SDS011;822;53.670;8.676;2022-10-17T14:58:48;2.80;;;2.60;;
1649;SDS011;822;53.670;8.676;2022-10-17T15:01:16;3.07;;;2.83;;
1649;SDS011;822;53.670;8.676;2022-10-17T15:03:43;3.10;;;2.90;;
1649;SDS011;822;53.670;8.676;2022-10-17T15:06:14;2.93;;;2.70;;
1649;SDS011;822;53.670;8.676;2022-10-17T15:08:42;2.43;;;2.33;;
1649;SDS011;822;53.670;8.676;2022-10-17T15:11:10;3.00;;;2.80;;
1649;SDS011;822;53.670;8.676;2022-10-17T15:13:37;2.90;;;2.70;;
1649;SDS011;822;53.670;8.676;2022-10-17T15:16:12;3.23;;;2.93;;
1649;SDS011;822;53.670;8.676;2022-10-17T15:18:41;2.90;;;2.70;;
1649;SDS011;822;53.670;8.676;2022-10-17T15:21:09;2.47;;;2.27;;
1649;SDS011;822;53.670;8.676;2022-10-17T15:23:37;2.83;;;2.63;;
1649;SDS011;822;53.670;8.676;2022-10-17T15:26:07;3.17;;;2.97;;
1649;SDS011;822;53.670;8.676;2022-10-17T15:28:38;2.43;;;2.30;;
1649;SDS011;822;53.670;8.676;2022-10-17T15:31:07;2.43;;;2.33;;
1649;SDS011;822;53.670;8.676;2022-10-17T15:33:36;3.30;;;3.00;;
1649;SDS011;822;53.670;8.676;2022-10-17T15:36:03;3.23;;;2.40;;
1649;SDS011;822;53.670;8.676;2022-10-17T15:38:30;2.67;;;2.47;;
1649;SDS011;822;53.670;8.676;2022-10-17T15:40:57;3.83;;;2.80;;
1649;SDS011;822;53.670;8.676;2022-10-17T15:43:24;1.73;;;1.63;;
1649;SDS011;822;53.670;8.676;2022-10-17T15:45:50;2.50;;;2.40;;
1649;SDS011;822;53.670;8.676;2022-10-17T15:48:18;2.20;;;2.10;;
1649;SDS011;822;53.670;8.676;2022-10-17T15:50:48;2.23;;;2.10;;
1649;SDS011;822;53.670;8.676;2022-10-17T15:53:15;2.10;;;2.00;;
1649;SDS011;822;53.670;8.676;2022-10-17T15:55:42;2.73;;;2.53;;
1649;SDS011;822;53.670;8.676;2022-10-17T15:58:09;2.83;;;2.63;;
1649;SDS011;822;53.670;8.676;2022-10-17T16:00:38;2.50;;;2.30;;